sensor_id;sensor_type;location;lat;lon;timestamp;P1;durP1;ratioP1;P2;durP2;ratioP2
47153;SDS011;32907;41.412;2.164;2024-02-16T00:00:14;10.15;;;4.75;;
47153;SDS011;32907;41.412;2.164;2024-02-16T00:02:44;9.48;;;4.95;;
47153;SDS011;32907;41.412;2.164;2024-02-16T00:05:13;12.25;;;4.45;;
47153;SDS011;32907;41.412;2.164;2024-02-16T00:07:42;9.88;;;4.07;;
47153;SDS011;32907;41.412;2.164;2024-02-16T00:10:10;11.15;;;3.90;;
47153;SDS011;32907;41.412;2.164;2024-02-16T00:12:41;8.55;;;3.60;;
47153;SDS011;32907;41.412;2.164;2024-02-16T00:15:10;7.22;;;3.47;;
47153;SDS011;32907;41.412;2.164;2024-02-16T00:17:38;11.32;;;3.75;;
47153;SDS011;32907;41.412;2.164;2024-02-16T00:20:06;7.63;;;3.22;;
47153;SDS011;32907;41.412;2.164;2024-02-16T00:22:35;7.90;;;3.15;;
47153;SDS011;32907;41.412;2.164;2024-02-16T00:25:03;8.68;;;3.55;;
47153;SDS011;32907;41.412;2.164;2024-02-16T00:27:32;8.43;;;3.13;;
47153;SDS011;32907;41.412;2.164;2024-02-16T00:30:00;8.68;;;3.15;;
47153;SDS011;32907;41.412;2.164;2024-02-16T00:32:30;7.55;;;2.90;;
47153;SDS011;32907;41.412;2.164;2024-02-16T00:34:59;7.25;;;3.13;;
47153;SDS011;32907;41.412;2.164;2024-02-16T00:37:27;9.52;;;3.33;;
47153;SDS011;32907;41.412;2.164;2024-02-16T00:39:55;9.93;;;3.65;;
47153;SDS011;32907;41.412;2.164;2024-02-16T00:42:23;10.13;;;3.40;;
47153;SDS011;32907;41.412;2.164;2024-02-16T00:44:54;10.27;;;3.70;;
47153;SDS011;32907;41.412;2.164;2024-02-16T00:47:22;8.75;;;3.75;;
47153;SDS011;32907;41.412;2.164;2024-02-16T00:49:51;8.13;;;3.03;;
47153;SDS011;32907;41.412;2.164;2024-02-16T00:52:19;10.52;;;3.20;;
47153;SDS011;32907;41.412;2.164;2024-02-16T00:54:48;9.20;;;3.53;;
47153;SDS011;32907;41.412;2.164;2024-02-16T00:57:16;7.28;;;3.20;;
47153;SDS011;32907;41.412;2.164;2024-02-16T00:59:45;8.95;;;3.45;;
47153;SDS011;32907;41.412;2.164;2024-02-16T01:02:13;8.43;;;3.45;;
47153;SDS011;32907;41.412;2.164;2024-02-16T01:04:44;10.20;;;3.75;;
47153;SDS011;32907;41.412;2.164;2024-02-16T01:07:12;10.48;;;3.72;;
47153;SDS011;32907;41.412;2.164;2024-02-16T01:09:40;10.10;;;3.30;;
47153;SDS011;32907;41.412;2.164;2024-02-16T01:12:08;10.38;;;4.03;;
47153;SDS011;32907;41.412;2.164;2024-02-16T01:14:36;11.25;;;3.53;;
47153;SDS011;32907;41.412;2.164;2024-02-16T01:17:05;11.30;;;3.50;;
47153;SDS011;32907;41.412;2.164;2024-02-16T01:19:33;7.65;;;3.00;;
47153;SDS011;32907;41.412;2.164;2024-02-16T01:22:01;8.98;;;3.83;;
47153;SDS011;32907;41.412;2.164;2024-02-16T01:24:29;12.80;;;3.53;;
47153;SDS011;32907;41.412;2.164;2024-02-16T01:26:58;9.23;;;3.92;;
47153;SDS011;32907;41.412;2.164;2024-02-16T01:29:27;10.52;;;3.80;;
47153;SDS011;32907;41.412;2.164;2024-02-16T01:31:55;10.82;;;3.92;;
47153;SDS011;32907;41.412;2.164;2024-02-16T01:34:23;10.00;;;4.35;;
47153;SDS011;32907;41.412;2.164;2024-02-16T01:36:51;12.20;;;5.07;;
47153;SDS011;32907;41.412;2.164;2024-02-16T01:39:20;12.48;;;4.88;;
47153;SDS011;32907;41.412;2.164;2024-02-16T01:41:48;11.38;;;4.82;;
47153;SDS011;32907;41.412;2.164;2024-02-16T01:44:16;13.65;;;5.38;;
47153;SDS011;32907;41.412;2.164;2024-02-16T01:46:44;10.18;;;5.53;;
47153;SDS011;32907;41.412;2.164;2024-02-16T01:49:13;12.98;;;7.30;;
47153;SDS011;32907;41.412;2.164;2024-02-16T01:51:42;18.13;;;9.05;;
47153;SDS011;32907;41.412;2.164;2024-02-16T01:54:14;15.43;;;9.23;;
47153;SDS011;32907;41.412;2.164;2024-02-16T01:56:45;17.52;;;10.40;;
47153;SDS011;32907;41.412;2.164;2024-02-16T01:59:15;18.77;;;11.25;;
47153;SDS011;32907;41.412;2.164;2024-02-16T02:01:43;16.17;;;11.57;;
47153;SDS011;32907;41.412;2.164;2024-02-16T02:04:11;17.77;;;11.68;;
47153;SDS011;32907;41.412;2.164;2024-02-16T02:06:39;17.77;;;10.88;;
47153;SDS011;32907;41.412;2.164;2024-02-16T02:09:07;18.67;;;11.25;;
47153;SDS011;32907;41.412;2.164;2024-02-16T02:11:36;18.27;;;12.23;;
47153;SDS011;32907;41.412;2.164;2024-02-16T02:14:05;17.92;;;11.82;;
47153;SDS011;32907;41.412;2.164;2024-02-16T02:16:33;16.10;;;11.45;;
47153;SDS011;32907;41.412;2.164;2024-02-16T02:19:14;18.38;;;11.15;;
47153;SDS011;32907;41.412;2.164;2024-02-16T02:21:43;15.57;;;9.88;;
47153;SDS011;32907;41.412;2.164;2024-02-16T02:24:11;14.00;;;9.43;;
47153;SDS011;32907;41.412;2.164;2024-02-16T02:26:40;15.20;;;9.05;;
47153;SDS011;32907;41.412;2.164;2024-02-16T02:29:08;14.48;;;8.05;;
47153;SDS011;32907;41.412;2.164;2024-02-16T02:31:37;13.85;;;7.55;;
47153;SDS011;32907;41.412;2.164;2024-02-16T02:34:05;14.30;;;7.75;;
47153;SDS011;32907;41.412;2.164;2024-02-16T02:36:33;14.57;;;8.57;;
47153;SDS011;32907;41.412;2.164;2024-02-16T02:39:02;12.07;;;6.68;;
47153;SDS011;32907;41.412;2.164;2024-02-16T02:41:30;13.25;;;7.28;;
47153;SDS011;32907;41.412;2.164;2024-02-16T02:44:00;15.15;;;7.88;;
47153;SDS011;32907;41.412;2.164;2024-02-16T02:46:28;15.30;;;8.00;;
47153;SDS011;32907;41.412;2.164;2024-02-16T02:48:56;14.75;;;8.10;;
47153;SDS011;32907;41.412;2.164;2024-02-16T02:51:24;11.32;;;7.35;;
47153;SDS011;32907;41.412;2.164;2024-02-16T02:53:54;12.23;;;7.18;;
47153;SDS011;32907;41.412;2.164;2024-02-16T02:56:22;14.90;;;7.65;;
47153;SDS011;32907;41.412;2.164;2024-02-16T02:58:50;12.40;;;6.72;;
47153;SDS011;32907;41.412;2.164;2024-02-16T03:01:19;12.05;;;6.90;;
47153;SDS011;32907;41.412;2.164;2024-02-16T03:03:48;10.40;;;6.20;;
47153;SDS011;32907;41.412;2.164;2024-02-16T03:06:19;10.82;;;6.53;;
47153;SDS011;32907;41.412;2.164;2024-02-16T03:08:48;10.82;;;5.65;;
47153;SDS011;32907;41.412;2.164;2024-02-16T03:11:16;11.82;;;6.07;;
47153;SDS011;32907;41.412;2.164;2024-02-16T03:13:44;11.85;;;5.82;;
47153;SDS011;32907;41.412;2.164;2024-02-16T03:16:12;11.77;;;6.53;;
47153;SDS011;32907;41.412;2.164;2024-02-16T03:18:41;10.65;;;5.53;;
47153;SDS011;32907;41.412;2.164;2024-02-16T03:21:12;12.50;;;6.45;;
47153;SDS011;32907;41.412;2.164;2024-02-16T03:23:43;10.55;;;6.47;;
47153;SDS011;32907;41.412;2.164;2024-02-16T03:26:18;12.95;;;6.70;;
47153;SDS011;32907;41.412;2.164;2024-02-16T03:28:47;10.98;;;6.07;;
47153;SDS011;32907;41.412;2.164;2024-02-16T03:31:16;8.55;;;5.68;;
47153;SDS011;32907;41.412;2.164;2024-02-16T03:33:46;9.52;;;5.93;;
47153;SDS011;32907;41.412;2.164;2024-02-16T03:36:15;11.30;;;6.13;;
47153;SDS011;32907;41.412;2.164;2024-02-16T03:38:44;9.82;;;5.45;;
47153;SDS011;32907;41.412;2.164;2024-02-16T03:41:14;10.65;;;5.28;;
47153;SDS011;32907;41.412;2.164;2024-02-16T03:43:43;9.23;;;5.28;;
47153;SDS011;32907;41.412;2.164;2024-02-16T03:46:12;9.07;;;4.55;;
47153;SDS011;32907;41.412;2.164;2024-02-16T03:48:40;7.78;;;4.85;;
47153;SDS011;32907;41.412;2.164;2024-02-16T03:51:09;9.40;;;4.75;;
47153;SDS011;32907;41.412;2.164;2024-02-16T03:53:37;9.40;;;4.50;;
47153;SDS011;32907;41.412;2.164;2024-02-16T03:56:05;10.00;;;4.50;;
47153;SDS011;32907;41.412;2.164;2024-02-16T03:58:35;9.82;;;4.82;;
47153;SDS011;32907;41.412;2.164;2024-02-16T04:01:04;7.75;;;4.25;;
47153;SDS011;32907;41.412;2.164;2024-02-16T04:03:36;9.13;;;4.65;;
47153;SDS011;32907;41.412;2.164;2024-02-16T04:06:05;10.02;;;4.32;;
47153;SDS011;32907;41.412;2.164;2024-02-16T04:08:33;7.25;;;3.90;;
47153;SDS011;32907;41.412;2.164;2024-02-16T04:11:01;7.93;;;3.83;;
47153;SDS011;32907;41.412;2.164;2024-02-16T04:13:30;9.60;;;4.28;;
47153;SDS011;32907;41.412;2.164;2024-02-16T04:16:00;9.10;;;4.28;;
47153;SDS011;32907;41.412;2.164;2024-02-16T04:18:28;8.07;;;4.15;;
47153;SDS011;32907;41.412;2.164;2024-02-16T04:20:57;8.00;;;3.95;;
47153;SDS011;32907;41.412;2.164;2024-02-16T04:23:25;11.93;;;4.35;;
47153;SDS011;32907;41.412;2.164;2024-02-16T04:25:53;8.77;;;4.40;;
47153;SDS011;32907;41.412;2.164;2024-02-16T04:28:21;7.65;;;3.70;;
47153;SDS011;32907;41.412;2.164;2024-02-16T04:30:49;8.00;;;3.70;;
47153;SDS011;32907;41.412;2.164;2024-02-16T04:33:18;8.05;;;4.03;;
47153;SDS011;32907;41.412;2.164;2024-02-16T04:35:46;9.73;;;3.97;;
47153;SDS011;32907;41.412;2.164;2024-02-16T04:38:16;8.88;;;4.20;;
47153;SDS011;32907;41.412;2.164;2024-02-16T04:40:44;7.55;;;3.65;;
47153;SDS011;32907;41.412;2.164;2024-02-16T04:43:12;8.10;;;3.95;;
47153;SDS011;32907;41.412;2.164;2024-02-16T04:45:40;9.45;;;3.60;;
47153;SDS011;32907;41.412;2.164;2024-02-16T04:48:09;8.68;;;3.60;;
47153;SDS011;32907;41.412;2.164;2024-02-16T04:50:37;8.40;;;4.10;;
47153;SDS011;32907;41.412;2.164;2024-02-16T04:53:05;7.53;;;3.22;;
47153;SDS011;32907;41.412;2.164;2024-02-16T04:55:33;7.85;;;4.20;;
47153;SDS011;32907;41.412;2.164;2024-02-16T04:58:01;8.57;;;4.05;;
47153;SDS011;32907;41.412;2.164;2024-02-16T05:00:32;7.82;;;3.78;;
47153;SDS011;32907;41.412;2.164;2024-02-16T05:03:01;6.68;;;3.65;;
47153;SDS011;32907;41.412;2.164;2024-02-16T05:05:30;8.10;;;3.90;;
47153;SDS011;32907;41.412;2.164;2024-02-16T05:07:58;6.88;;;3.30;;
47153;SDS011;32907;41.412;2.164;2024-02-16T05:10:27;6.40;;;3.42;;
47153;SDS011;32907;41.412;2.164;2024-02-16T05:12:55;9.40;;;3.65;;
47153;SDS011;32907;41.412;2.164;2024-02-16T05:15:25;6.88;;;3.00;;
47153;SDS011;32907;41.412;2.164;2024-02-16T05:17:53;8.27;;;4.15;;
47153;SDS011;32907;41.412;2.164;2024-02-16T05:20:21;10.40;;;3.92;;
47153;SDS011;32907;41.412;2.164;2024-02-16T05:22:49;8.23;;;3.53;;
47153;SDS011;32907;41.412;2.164;2024-02-16T05:25:18;10.07;;;3.50;;
47153;SDS011;32907;41.412;2.164;2024-02-16T05:27:46;8.02;;;3.45;;
47153;SDS011;32907;41.412;2.164;2024-02-16T05:30:15;9.77;;;4.07;;
47153;SDS011;32907;41.412;2.164;2024-02-16T05:32:44;10.95;;;5.35;;
47153;SDS011;32907;41.412;2.164;2024-02-16T05:35:12;10.68;;;5.45;;
47153;SDS011;32907;41.412;2.164;2024-02-16T05:37:44;12.52;;;5.63;;
47153;SDS011;32907;41.412;2.164;2024-02-16T05:40:17;10.32;;;5.30;;
47153;SDS011;32907;41.412;2.164;2024-02-16T05:42:57;11.00;;;5.20;;
47153;SDS011;32907;41.412;2.164;2024-02-16T05:45:25;10.23;;;4.65;;
47153;SDS011;32907;41.412;2.164;2024-02-16T05:47:55;8.32;;;4.30;;
47153;SDS011;32907;41.412;2.164;2024-02-16T05:50:23;10.35;;;4.35;;
47153;SDS011;32907;41.412;2.164;2024-02-16T05:52:51;8.48;;;4.20;;
47153;SDS011;32907;41.412;2.164;2024-02-16T05:55:20;8.15;;;4.00;;
47153;SDS011;32907;41.412;2.164;2024-02-16T05:57:47;10.52;;;4.10;;
47153;SDS011;32907;41.412;2.164;2024-02-16T06:00:16;10.23;;;4.20;;
47153;SDS011;32907;41.412;2.164;2024-02-16T06:02:44;14.57;;;5.13;;
47153;SDS011;32907;41.412;2.164;2024-02-16T06:05:12;10.95;;;6.10;;
47153;SDS011;32907;41.412;2.164;2024-02-16T06:07:40;14.00;;;5.75;;
47153;SDS011;32907;41.412;2.164;2024-02-16T06:10:08;9.88;;;4.60;;
47153;SDS011;32907;41.412;2.164;2024-02-16T06:12:39;7.18;;;4.00;;
47153;SDS011;32907;41.412;2.164;2024-02-16T06:15:08;9.60;;;5.97;;
47153;SDS011;32907;41.412;2.164;2024-02-16T06:17:36;16.80;;;11.70;;
47153;SDS011;32907;41.412;2.164;2024-02-16T06:20:04;20.15;;;13.02;;
47153;SDS011;32907;41.412;2.164;2024-02-16T06:22:34;15.40;;;10.50;;
47153;SDS011;32907;41.412;2.164;2024-02-16T06:25:02;12.35;;;8.25;;
47153;SDS011;32907;41.412;2.164;2024-02-16T06:27:30;13.30;;;6.38;;
47153;SDS011;32907;41.412;2.164;2024-02-16T06:29:58;14.48;;;5.43;;
47153;SDS011;32907;41.412;2.164;2024-02-16T06:32:27;13.20;;;4.35;;
47153;SDS011;32907;41.412;2.164;2024-02-16T06:34:56;13.80;;;5.15;;
47153;SDS011;32907;41.412;2.164;2024-02-16T06:37:24;11.90;;;4.18;;
47153;SDS011;32907;41.412;2.164;2024-02-16T06:39:53;12.18;;;4.88;;
47153;SDS011;32907;41.412;2.164;2024-02-16T06:42:21;11.98;;;5.18;;
47153;SDS011;32907;41.412;2.164;2024-02-16T06:44:49;9.90;;;4.55;;
47153;SDS011;32907;41.412;2.164;2024-02-16T06:47:17;11.07;;;4.68;;
47153;SDS011;32907;41.412;2.164;2024-02-16T06:49:46;8.05;;;4.38;;
47153;SDS011;32907;41.412;2.164;2024-02-16T06:52:14;8.38;;;4.38;;
47153;SDS011;32907;41.412;2.164;2024-02-16T06:54:43;10.82;;;4.68;;
47153;SDS011;32907;41.412;2.164;2024-02-16T06:57:11;9.40;;;4.38;;
47153;SDS011;32907;41.412;2.164;2024-02-16T06:59:40;10.85;;;4.50;;
47153;SDS011;32907;41.412;2.164;2024-02-16T07:02:09;10.13;;;4.10;;
47153;SDS011;32907;41.412;2.164;2024-02-16T07:04:41;11.80;;;4.72;;
47153;SDS011;32907;41.412;2.164;2024-02-16T07:07:09;13.52;;;4.32;;
47153;SDS011;32907;41.412;2.164;2024-02-16T07:09:38;7.85;;;4.45;;
47153;SDS011;32907;41.412;2.164;2024-02-16T07:12:07;10.57;;;4.50;;
47153;SDS011;32907;41.412;2.164;2024-02-16T07:14:35;12.05;;;4.03;;
47153;SDS011;32907;41.412;2.164;2024-02-16T07:17:03;11.35;;;4.47;;
47153;SDS011;32907;41.412;2.164;2024-02-16T07:19:35;12.75;;;4.55;;
47153;SDS011;32907;41.412;2.164;2024-02-16T07:22:04;9.35;;;3.88;;
47153;SDS011;32907;41.412;2.164;2024-02-16T07:24:34;8.75;;;4.00;;
47153;SDS011;32907;41.412;2.164;2024-02-16T07:27:02;7.80;;;3.60;;
47153;SDS011;32907;41.412;2.164;2024-02-16T07:29:31;10.32;;;4.05;;
47153;SDS011;32907;41.412;2.164;2024-02-16T07:31:59;9.85;;;4.25;;
47153;SDS011;32907;41.412;2.164;2024-02-16T07:34:27;8.45;;;4.10;;
47153;SDS011;32907;41.412;2.164;2024-02-16T07:36:56;10.05;;;4.20;;
47153;SDS011;32907;41.412;2.164;2024-02-16T07:39:24;11.23;;;3.88;;
47153;SDS011;32907;41.412;2.164;2024-02-16T07:41:53;7.60;;;3.30;;
47153;SDS011;32907;41.412;2.164;2024-02-16T07:44:21;8.35;;;3.38;;
47153;SDS011;32907;41.412;2.164;2024-02-16T07:46:49;9.55;;;3.70;;
47153;SDS011;32907;41.412;2.164;2024-02-16T07:49:18;9.38;;;3.90;;
47153;SDS011;32907;41.412;2.164;2024-02-16T07:51:46;10.77;;;3.85;;
47153;SDS011;32907;41.412;2.164;2024-02-16T07:54:14;11.38;;;3.85;;
47153;SDS011;32907;41.412;2.164;2024-02-16T07:56:43;10.77;;;3.85;;
47153;SDS011;32907;41.412;2.164;2024-02-16T07:59:12;10.25;;;3.55;;
47153;SDS011;32907;41.412;2.164;2024-02-16T08:01:40;9.90;;;3.33;;
47153;SDS011;32907;41.412;2.164;2024-02-16T08:04:12;10.40;;;3.65;;
47153;SDS011;32907;41.412;2.164;2024-02-16T08:06:41;9.50;;;3.67;;
47153;SDS011;32907;41.412;2.164;2024-02-16T08:09:11;7.97;;;3.50;;
47153;SDS011;32907;41.412;2.164;2024-02-16T08:11:39;9.85;;;3.45;;
47153;SDS011;32907;41.412;2.164;2024-02-16T08:14:07;7.57;;;3.47;;
47153;SDS011;32907;41.412;2.164;2024-02-16T08:16:36;8.10;;;3.85;;
47153;SDS011;32907;41.412;2.164;2024-02-16T08:19:04;9.32;;;4.00;;
47153;SDS011;32907;41.412;2.164;2024-02-16T08:21:33;10.77;;;3.70;;
47153;SDS011;32907;41.412;2.164;2024-02-16T08:24:01;8.52;;;3.92;;
47153;SDS011;32907;41.412;2.164;2024-02-16T08:26:30;8.00;;;3.72;;
47153;SDS011;32907;41.412;2.164;2024-02-16T08:28:58;8.35;;;3.30;;
47153;SDS011;32907;41.412;2.164;2024-02-16T08:31:27;7.60;;;3.10;;
47153;SDS011;32907;41.412;2.164;2024-02-16T08:33:55;8.52;;;3.60;;
47153;SDS011;32907;41.412;2.164;2024-02-16T08:36:23;9.80;;;3.40;;
47153;SDS011;32907;41.412;2.164;2024-02-16T08:38:56;8.32;;;3.08;;
47153;SDS011;32907;41.412;2.164;2024-02-16T08:41:25;8.65;;;3.45;;
47153;SDS011;32907;41.412;2.164;2024-02-16T08:43:53;6.88;;;3.00;;
47153;SDS011;32907;41.412;2.164;2024-02-16T08:46:22;9.32;;;3.08;;
47153;SDS011;32907;41.412;2.164;2024-02-16T08:48:50;8.77;;;3.13;;
47153;SDS011;32907;41.412;2.164;2024-02-16T08:51:19;6.80;;;2.83;;
47153;SDS011;32907;41.412;2.164;2024-02-16T08:53:47;7.10;;;3.38;;
47153;SDS011;32907;41.412;2.164;2024-02-16T08:56:15;10.68;;;3.58;;
47153;SDS011;32907;41.412;2.164;2024-02-16T08:58:43;7.53;;;3.30;;
47153;SDS011;32907;41.412;2.164;2024-02-16T09:01:11;7.25;;;3.78;;
47153;SDS011;32907;41.412;2.164;2024-02-16T09:03:40;10.52;;;3.88;;
47153;SDS011;32907;41.412;2.164;2024-02-16T09:06:08;7.43;;;3.40;;
47153;SDS011;32907;41.412;2.164;2024-02-16T09:08:37;13.32;;;4.40;;
47153;SDS011;32907;41.412;2.164;2024-02-16T09:11:05;14.10;;;4.65;;
47153;SDS011;32907;41.412;2.164;2024-02-16T09:13:34;10.48;;;5.80;;
47153;SDS011;32907;41.412;2.164;2024-02-16T09:16:08;11.43;;;5.25;;
47153;SDS011;32907;41.412;2.164;2024-02-16T09:18:36;10.60;;;5.40;;
47153;SDS011;32907;41.412;2.164;2024-02-16T09:21:07;10.70;;;4.90;;
47153;SDS011;32907;41.412;2.164;2024-02-16T09:23:36;9.75;;;5.00;;
47153;SDS011;32907;41.412;2.164;2024-02-16T09:26:05;10.32;;;4.82;;
47153;SDS011;32907;41.412;2.164;2024-02-16T09:28:33;13.00;;;5.15;;
47153;SDS011;32907;41.412;2.164;2024-02-16T09:31:01;9.70;;;4.78;;
47153;SDS011;32907;41.412;2.164;2024-02-16T09:33:31;11.73;;;4.95;;
47153;SDS011;32907;41.412;2.164;2024-02-16T09:35:59;9.63;;;4.68;;
47153;SDS011;32907;41.412;2.164;2024-02-16T09:38:28;10.80;;;4.68;;
47153;SDS011;32907;41.412;2.164;2024-02-16T09:40:56;10.68;;;4.70;;
47153;SDS011;32907;41.412;2.164;2024-02-16T09:43:24;8.52;;;4.13;;
47153;SDS011;32907;41.412;2.164;2024-02-16T09:45:54;8.27;;;4.32;;
47153;SDS011;32907;41.412;2.164;2024-02-16T09:48:24;11.77;;;5.18;;
47153;SDS011;32907;41.412;2.164;2024-02-16T09:50:55;7.90;;;4.80;;
47153;SDS011;32907;41.412;2.164;2024-02-16T09:53:28;10.85;;;4.78;;
47153;SDS011;32907;41.412;2.164;2024-02-16T09:55:56;12.43;;;4.65;;
47153;SDS011;32907;41.412;2.164;2024-02-16T09:58:25;8.88;;;4.28;;
47153;SDS011;32907;41.412;2.164;2024-02-16T10:00:53;10.68;;;4.55;;
47153;SDS011;32907;41.412;2.164;2024-02-16T10:03:25;7.97;;;3.20;;
47153;SDS011;32907;41.412;2.164;2024-02-16T10:06:08;9.18;;;3.95;;
47153;SDS011;32907;41.412;2.164;2024-02-16T10:08:51;8.35;;;3.70;;
47153;SDS011;32907;41.412;2.164;2024-02-16T10:11:21;10.02;;;3.50;;
47153;SDS011;32907;41.412;2.164;2024-02-16T10:14:01;14.30;;;5.93;;
47153;SDS011;32907;41.412;2.164;2024-02-16T10:16:32;13.93;;;6.40;;
47153;SDS011;32907;41.412;2.164;2024-02-16T10:19:07;11.38;;;5.90;;
47153;SDS011;32907;41.412;2.164;2024-02-16T10:21:42;7.60;;;4.63;;
47153;SDS011;32907;41.412;2.164;2024-02-16T10:24:11;8.82;;;4.47;;
47153;SDS011;32907;41.412;2.164;2024-02-16T10:26:42;10.57;;;5.07;;
47153;SDS011;32907;41.412;2.164;2024-02-16T10:29:11;8.75;;;3.90;;
47153;SDS011;32907;41.412;2.164;2024-02-16T10:31:39;10.00;;;4.70;;
47153;SDS011;32907;41.412;2.164;2024-02-16T10:34:07;9.75;;;4.72;;
47153;SDS011;32907;41.412;2.164;2024-02-16T10:36:38;10.40;;;4.90;;
47153;SDS011;32907;41.412;2.164;2024-02-16T10:39:07;11.57;;;5.72;;
47153;SDS011;32907;41.412;2.164;2024-02-16T10:41:37;9.70;;;5.13;;
47153;SDS011;32907;41.412;2.164;2024-02-16T10:44:07;10.35;;;5.15;;
47153;SDS011;32907;41.412;2.164;2024-02-16T10:46:36;9.75;;;5.03;;
47153;SDS011;32907;41.412;2.164;2024-02-16T10:49:05;8.82;;;4.40;;
47153;SDS011;32907;41.412;2.164;2024-02-16T10:51:36;7.68;;;4.07;;
47153;SDS011;32907;41.412;2.164;2024-02-16T10:54:08;10.20;;;4.10;;
47153;SDS011;32907;41.412;2.164;2024-02-16T10:56:38;7.38;;;3.35;;
47153;SDS011;32907;41.412;2.164;2024-02-16T10:59:09;8.98;;;3.50;;
47153;SDS011;32907;41.412;2.164;2024-02-16T11:01:38;9.02;;;3.22;;
47153;SDS011;32907;41.412;2.164;2024-02-16T11:04:08;12.52;;;3.60;;
47153;SDS011;32907;41.412;2.164;2024-02-16T11:12:04;9.18;;;3.67;;
47153;SDS011;32907;41.412;2.164;2024-02-16T11:14:40;19.75;;;8.27;;
47153;SDS011;32907;41.412;2.164;2024-02-16T11:17:23;26.58;;;10.75;;
47153;SDS011;32907;41.412;2.164;2024-02-16T11:19:53;23.95;;;8.70;;
47153;SDS011;32907;41.412;2.164;2024-02-16T11:22:22;19.92;;;7.60;;
47153;SDS011;32907;41.412;2.164;2024-02-16T11:24:58;12.57;;;5.20;;
47153;SDS011;32907;41.412;2.164;2024-02-16T11:27:30;12.88;;;4.90;;
47153;SDS011;32907;41.412;2.164;2024-02-16T11:29:59;12.73;;;4.72;;
47153;SDS011;32907;41.412;2.164;2024-02-16T11:32:31;13.52;;;4.72;;
47153;SDS011;32907;41.412;2.164;2024-02-16T11:35:08;10.82;;;4.30;;
47153;SDS011;32907;41.412;2.164;2024-02-16T11:37:39;8.75;;;4.10;;
47153;SDS011;32907;41.412;2.164;2024-02-16T11:40:07;11.18;;;4.03;;
47153;SDS011;32907;41.412;2.164;2024-02-16T11:42:42;14.32;;;3.92;;
47153;SDS011;32907;41.412;2.164;2024-02-16T11:45:14;11.00;;;4.25;;
47153;SDS011;32907;41.412;2.164;2024-02-16T11:47:43;11.80;;;4.35;;
47153;SDS011;32907;41.412;2.164;2024-02-16T11:50:11;13.27;;;3.85;;
47153;SDS011;32907;41.412;2.164;2024-02-16T11:52:41;10.93;;;4.00;;
47153;SDS011;32907;41.412;2.164;2024-02-16T11:55:10;13.88;;;4.05;;
47153;SDS011;32907;41.412;2.164;2024-02-16T11:57:39;11.68;;;3.95;;
47153;SDS011;32907;41.412;2.164;2024-02-16T12:00:08;7.90;;;4.03;;
47153;SDS011;32907;41.412;2.164;2024-02-16T12:02:43;14.23;;;5.30;;
47153;SDS011;32907;41.412;2.164;2024-02-16T12:05:13;10.77;;;5.07;;
47153;SDS011;32907;41.412;2.164;2024-02-16T12:07:43;14.18;;;5.45;;
47153;SDS011;32907;41.412;2.164;2024-02-16T12:10:12;11.93;;;5.38;;
47153;SDS011;32907;41.412;2.164;2024-02-16T12:12:40;8.85;;;4.18;;
47153;SDS011;32907;41.412;2.164;2024-02-16T12:15:10;10.20;;;4.63;;
47153;SDS011;32907;41.412;2.164;2024-02-16T12:17:41;9.50;;;4.53;;
47153;SDS011;32907;41.412;2.164;2024-02-16T12:20:12;11.35;;;5.60;;
47153;SDS011;32907;41.412;2.164;2024-02-16T12:22:43;9.65;;;4.72;;
47153;SDS011;32907;41.412;2.164;2024-02-16T12:25:12;10.18;;;4.95;;
47153;SDS011;32907;41.412;2.164;2024-02-16T12:27:40;12.02;;;5.40;;
47153;SDS011;32907;41.412;2.164;2024-02-16T12:30:09;12.90;;;6.13;;
47153;SDS011;32907;41.412;2.164;2024-02-16T12:32:38;18.50;;;8.50;;
47153;SDS011;32907;41.412;2.164;2024-02-16T12:35:07;12.75;;;6.60;;
47153;SDS011;32907;41.412;2.164;2024-02-16T12:37:36;11.27;;;5.35;;
47153;SDS011;32907;41.412;2.164;2024-02-16T12:40:05;13.57;;;5.22;;
47153;SDS011;32907;41.412;2.164;2024-02-16T12:42:35;10.60;;;4.97;;
47153;SDS011;32907;41.412;2.164;2024-02-16T12:45:04;11.00;;;4.47;;
47153;SDS011;32907;41.412;2.164;2024-02-16T12:47:32;12.80;;;4.97;;
47153;SDS011;32907;41.412;2.164;2024-02-16T12:50:00;13.32;;;5.60;;
47153;SDS011;32907;41.412;2.164;2024-02-16T12:52:29;13.95;;;7.20;;
47153;SDS011;32907;41.412;2.164;2024-02-16T12:54:57;15.27;;;7.45;;
47153;SDS011;32907;41.412;2.164;2024-02-16T12:57:26;13.65;;;7.97;;
47153;SDS011;32907;41.412;2.164;2024-02-16T12:59:57;15.15;;;8.13;;
47153;SDS011;32907;41.412;2.164;2024-02-16T13:02:25;14.75;;;8.02;;
47153;SDS011;32907;41.412;2.164;2024-02-16T13:04:54;17.38;;;7.75;;
47153;SDS011;32907;41.412;2.164;2024-02-16T13:07:23;12.63;;;6.55;;
47153;SDS011;32907;41.412;2.164;2024-02-16T13:09:53;17.17;;;7.15;;
47153;SDS011;32907;41.412;2.164;2024-02-16T13:12:21;12.10;;;6.25;;
47153;SDS011;32907;41.412;2.164;2024-02-16T13:14:51;13.93;;;6.05;;
47153;SDS011;32907;41.412;2.164;2024-02-16T13:17:20;12.48;;;6.32;;
47153;SDS011;32907;41.412;2.164;2024-02-16T13:19:48;10.85;;;5.78;;
47153;SDS011;32907;41.412;2.164;2024-02-16T13:22:17;15.43;;;5.45;;
47153;SDS011;32907;41.412;2.164;2024-02-16T13:24:45;11.73;;;5.60;;
47153;SDS011;32907;41.412;2.164;2024-02-16T13:27:13;14.98;;;6.40;;
47153;SDS011;32907;41.412;2.164;2024-02-16T13:29:42;13.55;;;5.78;;
47153;SDS011;32907;41.412;2.164;2024-02-16T13:32:10;17.38;;;7.05;;
47153;SDS011;32907;41.412;2.164;2024-02-16T13:34:39;18.92;;;6.60;;
47153;SDS011;32907;41.412;2.164;2024-02-16T13:37:07;15.35;;;5.85;;
47153;SDS011;32907;41.412;2.164;2024-02-16T13:39:35;18.50;;;7.63;;
47153;SDS011;32907;41.412;2.164;2024-02-16T13:42:03;16.30;;;7.72;;
47153;SDS011;32907;41.412;2.164;2024-02-16T13:44:32;18.65;;;8.20;;
47153;SDS011;32907;41.412;2.164;2024-02-16T13:47:00;22.08;;;7.97;;
47153;SDS011;32907;41.412;2.164;2024-02-16T13:49:28;15.52;;;6.93;;
47153;SDS011;32907;41.412;2.164;2024-02-16T13:51:56;14.50;;;6.47;;
47153;SDS011;32907;41.412;2.164;2024-02-16T13:54:26;14.85;;;6.70;;
47153;SDS011;32907;41.412;2.164;2024-02-16T13:56:54;14.07;;;6.18;;
47153;SDS011;32907;41.412;2.164;2024-02-16T13:59:22;15.63;;;6.03;;
47153;SDS011;32907;41.412;2.164;2024-02-16T14:01:50;17.15;;;6.32;;
47153;SDS011;32907;41.412;2.164;2024-02-16T14:04:19;14.05;;;6.07;;
47153;SDS011;32907;41.412;2.164;2024-02-16T14:06:47;22.33;;;6.97;;
47153;SDS011;32907;41.412;2.164;2024-02-16T14:09:16;19.08;;;7.15;;
47153;SDS011;32907;41.412;2.164;2024-02-16T14:11:56;23.95;;;8.60;;
47153;SDS011;32907;41.412;2.164;2024-02-16T14:14:27;24.63;;;10.63;;
47153;SDS011;32907;41.412;2.164;2024-02-16T14:17:04;22.50;;;8.27;;
47153;SDS011;32907;41.412;2.164;2024-02-16T14:19:33;14.65;;;6.18;;
47153;SDS011;32907;41.412;2.164;2024-02-16T14:22:06;16.98;;;7.45;;
47153;SDS011;32907;41.412;2.164;2024-02-16T14:24:35;14.45;;;7.25;;
47153;SDS011;32907;41.412;2.164;2024-02-16T14:27:03;14.23;;;6.47;;
47153;SDS011;32907;41.412;2.164;2024-02-16T14:29:32;17.77;;;6.95;;
47153;SDS011;32907;41.412;2.164;2024-02-16T14:32:00;13.88;;;6.07;;
47153;SDS011;32907;41.412;2.164;2024-02-16T14:34:28;16.08;;;6.13;;
47153;SDS011;32907;41.412;2.164;2024-02-16T14:36:58;13.68;;;5.93;;
47153;SDS011;32907;41.412;2.164;2024-02-16T14:39:26;14.70;;;6.18;;
47153;SDS011;32907;41.412;2.164;2024-02-16T14:41:55;21.63;;;12.45;;
47153;SDS011;32907;41.412;2.164;2024-02-16T14:44:23;30.58;;;13.48;;
47153;SDS011;32907;41.412;2.164;2024-02-16T14:46:51;25.63;;;11.50;;
47153;SDS011;32907;41.412;2.164;2024-02-16T14:49:19;30.65;;;10.55;;
47153;SDS011;32907;41.412;2.164;2024-02-16T14:51:52;40.05;;;9.68;;
47153;SDS011;32907;41.412;2.164;2024-02-16T14:54:20;28.38;;;8.13;;